<?xml version="1.0" encoding="UTF-8" standalone="no" ?>
<gpx xmlns="http://www.topografix.com/GPX/1/1" xmlns:xsi="http://www.w3.org/2001/XMLSchema-instance" xsi:schemaLocation="http://www.topografix.com/GPX/1/1 http://www.topografix.com/GPX/1/1/gpx.xsd" version="1.1" creator="VisuGPX - https://www.visugpx.com">
  <metadata>
    <name>Autour du Mont Alhérac</name>
    <desc><![CDATA[Lozère entre Aubrac et Margeride Haut Pays de Fournels]]></desc>
  </metadata>
  <trk>
    <name><![CDATA[8536812-2 - Autour du Mont Alhérac]]></name>
    <trkseg>
      <trkpt lat="44.81692" lon="3.12081">
        <ele>963</ele>
        <time>2018-04-24T06:30:01Z</time>
      </trkpt>
      <trkpt lat="44.81682" lon="3.12093">
        <ele>963</ele>
        <time>2018-04-24T06:31:01Z</time>
      </trkpt>
      <trkpt lat="44.81677" lon="3.12111">
        <ele>963</ele>
        <time>2018-04-24T06:32:01Z</time>
      </trkpt>
      <trkpt lat="44.81674" lon="3.12167">
        <ele>962</ele>
        <time>2018-04-24T06:33:01Z</time>
      </trkpt>
      <trkpt lat="44.81673" lon="3.12201">
        <ele>963</ele>
        <time>2018-04-24T06:34:01Z</time>
      </trkpt>
      <trkpt lat="44.81682" lon="3.12256">
        <ele>964</ele>
        <time>2018-04-24T06:35:01Z</time>
      </trkpt>
      <trkpt lat="44.81682" lon="3.12256">
        <ele>964</ele>
        <time>2018-04-24T06:36:01Z</time>
      </trkpt>
      <trkpt lat="44.81679" lon="3.12263">
        <ele>965</ele>
        <time>2018-04-24T06:37:01Z</time>
      </trkpt>
      <trkpt lat="44.8167" lon="3.12321">
        <ele>968</ele>
        <time>2018-04-24T06:38:01Z</time>
      </trkpt>
      <trkpt lat="44.81662" lon="3.12337">
        <ele>969</ele>
        <time>2018-04-24T06:39:01Z</time>
      </trkpt>
      <trkpt lat="44.81662" lon="3.12339">
        <ele>970</ele>
        <time>2018-04-24T06:40:01Z</time>
      </trkpt>
      <trkpt lat="44.81662" lon="3.12339">
        <ele>970</ele>
        <time>2018-04-24T06:41:01Z</time>
      </trkpt>
      <trkpt lat="44.81663" lon="3.12351">
        <ele>971</ele>
        <time>2018-04-24T06:42:01Z</time>
      </trkpt>
      <trkpt lat="44.81655" lon="3.1238">
        <ele>975</ele>
        <time>2018-04-24T06:43:01Z</time>
      </trkpt>
      <trkpt lat="44.81656" lon="3.12413">
        <ele>979</ele>
        <time>2018-04-24T06:44:01Z</time>
      </trkpt>
      <trkpt lat="44.81652" lon="3.12439">
        <ele>983</ele>
        <time>2018-04-24T06:45:01Z</time>
      </trkpt>
      <trkpt lat="44.81652" lon="3.12439">
        <ele>983</ele>
        <time>2018-04-24T06:46:01Z</time>
      </trkpt>
      <trkpt lat="44.8165" lon="3.12452">
        <ele>985</ele>
        <time>2018-04-24T06:47:01Z</time>
      </trkpt>
      <trkpt lat="44.81658" lon="3.1249">
        <ele>989</ele>
        <time>2018-04-24T06:48:01Z</time>
      </trkpt>
      <trkpt lat="44.8165" lon="3.12531">
        <ele>996</ele>
        <time>2018-04-24T06:49:01Z</time>
      </trkpt>
      <trkpt lat="44.81642" lon="3.12563">
        <ele>1001</ele>
        <time>2018-04-24T06:50:01Z</time>
      </trkpt>
      <trkpt lat="44.81642" lon="3.12585">
        <ele>1004</ele>
        <time>2018-04-24T06:51:01Z</time>
      </trkpt>
      <trkpt lat="44.81645" lon="3.12615">
        <ele>1007</ele>
        <time>2018-04-24T06:52:01Z</time>
      </trkpt>
      <trkpt lat="44.81639" lon="3.12645">
        <ele>1011</ele>
        <time>2018-04-24T06:53:01Z</time>
      </trkpt>
      <trkpt lat="44.81633" lon="3.1266">
        <ele>1013</ele>
        <time>2018-04-24T06:54:01Z</time>
      </trkpt>
      <trkpt lat="44.81626" lon="3.12667">
        <ele>1014</ele>
        <time>2018-04-24T06:55:01Z</time>
      </trkpt>
      <trkpt lat="44.81618" lon="3.12669">
        <ele>1016</ele>
        <time>2018-04-24T06:56:01Z</time>
      </trkpt>
      <trkpt lat="44.81599" lon="3.12681">
        <ele>1019</ele>
        <time>2018-04-24T06:57:01Z</time>
      </trkpt>
      <trkpt lat="44.8159" lon="3.12685">
        <ele>1021</ele>
        <time>2018-04-24T06:58:01Z</time>
      </trkpt>
      <trkpt lat="44.81579" lon="3.12693">
        <ele>1023</ele>
        <time>2018-04-24T06:59:01Z</time>
      </trkpt>
      <trkpt lat="44.81568" lon="3.12696">
        <ele>1024</ele>
        <time>2018-04-24T07:00:01Z</time>
      </trkpt>
      <trkpt lat="44.81553" lon="3.12695">
        <ele>1026</ele>
        <time>2018-04-24T07:01:01Z</time>
      </trkpt>
      <trkpt lat="44.8153" lon="3.12698">
        <ele>1028</ele>
        <time>2018-04-24T07:02:01Z</time>
      </trkpt>
      <trkpt lat="44.81522" lon="3.12702">
        <ele>1029</ele>
        <time>2018-04-24T07:03:01Z</time>
      </trkpt>
      <trkpt lat="44.81515" lon="3.12715">
        <ele>1030</ele>
        <time>2018-04-24T07:04:01Z</time>
      </trkpt>
      <trkpt lat="44.81506" lon="3.12722">
        <ele>1031</ele>
        <time>2018-04-24T07:05:01Z</time>
      </trkpt>
      <trkpt lat="44.81486" lon="3.12735">
        <ele>1033</ele>
        <time>2018-04-24T07:06:01Z</time>
      </trkpt>
      <trkpt lat="44.81477" lon="3.12739">
        <ele>1035</ele>
        <time>2018-04-24T07:07:01Z</time>
      </trkpt>
      <trkpt lat="44.81461" lon="3.12736">
        <ele>1036</ele>
        <time>2018-04-24T07:08:01Z</time>
      </trkpt>
      <trkpt lat="44.81456" lon="3.12738">
        <ele>1037</ele>
        <time>2018-04-24T07:09:01Z</time>
      </trkpt>
      <trkpt lat="44.81454" lon="3.12742">
        <ele>1037</ele>
        <time>2018-04-24T07:10:01Z</time>
      </trkpt>
      <trkpt lat="44.81451" lon="3.12754">
        <ele>1038</ele>
        <time>2018-04-24T07:11:01Z</time>
      </trkpt>
      <trkpt lat="44.81449" lon="3.12758">
        <ele>1039</ele>
        <time>2018-04-24T07:12:01Z</time>
      </trkpt>
      <trkpt lat="44.81421" lon="3.1278">
        <ele>1043</ele>
        <time>2018-04-24T07:13:01Z</time>
      </trkpt>
      <trkpt lat="44.81415" lon="3.12788">
        <ele>1043</ele>
        <time>2018-04-24T07:14:01Z</time>
      </trkpt>
      <trkpt lat="44.81392" lon="3.12803">
        <ele>1045</ele>
        <time>2018-04-24T07:15:01Z</time>
      </trkpt>
      <trkpt lat="44.81384" lon="3.12812">
        <ele>1046</ele>
        <time>2018-04-24T07:16:01Z</time>
      </trkpt>
      <trkpt lat="44.81366" lon="3.12825">
        <ele>1049</ele>
        <time>2018-04-24T07:17:01Z</time>
      </trkpt>
      <trkpt lat="44.81361" lon="3.1283">
        <ele>1049</ele>
        <time>2018-04-24T07:18:01Z</time>
      </trkpt>
      <trkpt lat="44.81365" lon="3.1283">
        <ele>1049</ele>
        <time>2018-04-24T07:19:01Z</time>
      </trkpt>
      <trkpt lat="44.81365" lon="3.1283">
        <ele>1049</ele>
        <time>2018-04-24T07:20:01Z</time>
      </trkpt>
      <trkpt lat="44.81361" lon="3.1283">
        <ele>1049</ele>
        <time>2018-04-24T07:21:01Z</time>
      </trkpt>
      <trkpt lat="44.81351" lon="3.1284">
        <ele>1051</ele>
        <time>2018-04-24T07:22:01Z</time>
      </trkpt>
      <trkpt lat="44.81325" lon="3.12878">
        <ele>1054</ele>
        <time>2018-04-24T07:23:01Z</time>
      </trkpt>
      <trkpt lat="44.81307" lon="3.12897">
        <ele>1056</ele>
        <time>2018-04-24T07:24:01Z</time>
      </trkpt>
      <trkpt lat="44.81287" lon="3.12923">
        <ele>1059</ele>
        <time>2018-04-24T07:25:01Z</time>
      </trkpt>
      <trkpt lat="44.8128" lon="3.12944">
        <ele>1060</ele>
        <time>2018-04-24T07:26:01Z</time>
      </trkpt>
      <trkpt lat="44.81257" lon="3.12988">
        <ele>1062</ele>
        <time>2018-04-24T07:27:01Z</time>
      </trkpt>
      <trkpt lat="44.81241" lon="3.13022">
        <ele>1064</ele>
        <time>2018-04-24T07:28:01Z</time>
      </trkpt>
      <trkpt lat="44.81206" lon="3.13076">
        <ele>1069</ele>
        <time>2018-04-24T07:29:01Z</time>
      </trkpt>
      <trkpt lat="44.81198" lon="3.13093">
        <ele>1071</ele>
        <time>2018-04-24T07:30:01Z</time>
      </trkpt>
      <trkpt lat="44.81197" lon="3.13104">
        <ele>1072</ele>
        <time>2018-04-24T07:31:01Z</time>
      </trkpt>
      <trkpt lat="44.81199" lon="3.13116">
        <ele>1073</ele>
        <time>2018-04-24T07:32:01Z</time>
      </trkpt>
      <trkpt lat="44.81198" lon="3.13132">
        <ele>1075</ele>
        <time>2018-04-24T07:33:01Z</time>
      </trkpt>
      <trkpt lat="44.81188" lon="3.13174">
        <ele>1080</ele>
        <time>2018-04-24T07:34:01Z</time>
      </trkpt>
      <trkpt lat="44.81167" lon="3.13239">
        <ele>1090</ele>
        <time>2018-04-24T07:35:01Z</time>
      </trkpt>
      <trkpt lat="44.81163" lon="3.13254">
        <ele>1091</ele>
        <time>2018-04-24T07:36:01Z</time>
      </trkpt>
      <trkpt lat="44.81162" lon="3.13269">
        <ele>1091</ele>
        <time>2018-04-24T07:37:01Z</time>
      </trkpt>
      <trkpt lat="44.81156" lon="3.13285">
        <ele>1092</ele>
        <time>2018-04-24T07:38:01Z</time>
      </trkpt>
      <trkpt lat="44.81116" lon="3.13337">
        <ele>1093</ele>
        <time>2018-04-24T07:39:01Z</time>
      </trkpt>
      <trkpt lat="44.81108" lon="3.13344">
        <ele>1093</ele>
        <time>2018-04-24T07:40:01Z</time>
      </trkpt>
      <trkpt lat="44.81101" lon="3.13363">
        <ele>1095</ele>
        <time>2018-04-24T07:41:01Z</time>
      </trkpt>
      <trkpt lat="44.8109" lon="3.13387">
        <ele>1097</ele>
        <time>2018-04-24T07:42:01Z</time>
      </trkpt>
      <trkpt lat="44.8106" lon="3.13432">
        <ele>1099</ele>
        <time>2018-04-24T07:43:01Z</time>
      </trkpt>
      <trkpt lat="44.81041" lon="3.13466">
        <ele>1102</ele>
        <time>2018-04-24T07:44:01Z</time>
      </trkpt>
      <trkpt lat="44.81031" lon="3.13477">
        <ele>1103</ele>
        <time>2018-04-24T07:45:01Z</time>
      </trkpt>
      <trkpt lat="44.8101" lon="3.13513">
        <ele>1107</ele>
        <time>2018-04-24T07:46:01Z</time>
      </trkpt>
      <trkpt lat="44.81005" lon="3.1353">
        <ele>1108</ele>
        <time>2018-04-24T07:47:01Z</time>
      </trkpt>
      <trkpt lat="44.80971" lon="3.13598">
        <ele>1114</ele>
        <time>2018-04-24T07:48:01Z</time>
      </trkpt>
      <trkpt lat="44.80961" lon="3.13621">
        <ele>1115</ele>
        <time>2018-04-24T07:49:01Z</time>
      </trkpt>
      <trkpt lat="44.80958" lon="3.13636">
        <ele>1116</ele>
        <time>2018-04-24T07:50:01Z</time>
      </trkpt>
      <trkpt lat="44.80954" lon="3.1365">
        <ele>1117</ele>
        <time>2018-04-24T07:51:01Z</time>
      </trkpt>
      <trkpt lat="44.80945" lon="3.13661">
        <ele>1119</ele>
        <time>2018-04-24T07:52:01Z</time>
      </trkpt>
      <trkpt lat="44.80932" lon="3.13673">
        <ele>1121</ele>
        <time>2018-04-24T07:53:01Z</time>
      </trkpt>
      <trkpt lat="44.80922" lon="3.13687">
        <ele>1123</ele>
        <time>2018-04-24T07:54:01Z</time>
      </trkpt>
      <trkpt lat="44.80917" lon="3.13708">
        <ele>1125</ele>
        <time>2018-04-24T07:55:01Z</time>
      </trkpt>
      <trkpt lat="44.80913" lon="3.1373">
        <ele>1128</ele>
        <time>2018-04-24T07:56:01Z</time>
      </trkpt>
      <trkpt lat="44.80908" lon="3.1375">
        <ele>1130</ele>
        <time>2018-04-24T07:57:01Z</time>
      </trkpt>
      <trkpt lat="44.80904" lon="3.13803">
        <ele>1136</ele>
        <time>2018-04-24T07:58:01Z</time>
      </trkpt>
      <trkpt lat="44.80907" lon="3.13809">
        <ele>1136</ele>
        <time>2018-04-24T07:59:01Z</time>
      </trkpt>
      <trkpt lat="44.80907" lon="3.13809">
        <ele>1136</ele>
        <time>2018-04-24T08:00:01Z</time>
      </trkpt>
      <trkpt lat="44.80886" lon="3.13769">
        <ele>1134</ele>
        <time>2018-04-24T08:01:01Z</time>
      </trkpt>
      <trkpt lat="44.80866" lon="3.13736">
        <ele>1133</ele>
        <time>2018-04-24T08:02:01Z</time>
      </trkpt>
      <trkpt lat="44.80847" lon="3.13717">
        <ele>1133</ele>
        <time>2018-04-24T08:03:01Z</time>
      </trkpt>
      <trkpt lat="44.80792" lon="3.1368">
        <ele>1133</ele>
        <time>2018-04-24T08:04:01Z</time>
      </trkpt>
      <trkpt lat="44.80771" lon="3.13662">
        <ele>1134</ele>
        <time>2018-04-24T08:05:01Z</time>
      </trkpt>
      <trkpt lat="44.80752" lon="3.13652">
        <ele>1134</ele>
        <time>2018-04-24T08:06:01Z</time>
      </trkpt>
      <trkpt lat="44.8073" lon="3.13635">
        <ele>1132</ele>
        <time>2018-04-24T08:07:01Z</time>
      </trkpt>
      <trkpt lat="44.80713" lon="3.13614">
        <ele>1130</ele>
        <time>2018-04-24T08:08:01Z</time>
      </trkpt>
      <trkpt lat="44.80694" lon="3.13596">
        <ele>1129</ele>
        <time>2018-04-24T08:09:01Z</time>
      </trkpt>
      <trkpt lat="44.80584" lon="3.13527">
        <ele>1124</ele>
        <time>2018-04-24T08:10:01Z</time>
      </trkpt>
      <trkpt lat="44.80546" lon="3.13516">
        <ele>1123</ele>
        <time>2018-04-24T08:11:01Z</time>
      </trkpt>
      <trkpt lat="44.80501" lon="3.135">
        <ele>1120</ele>
        <time>2018-04-24T08:12:01Z</time>
      </trkpt>
      <trkpt lat="44.80461" lon="3.1349">
        <ele>1120</ele>
        <time>2018-04-24T08:13:01Z</time>
      </trkpt>
      <trkpt lat="44.80446" lon="3.13483">
        <ele>1119</ele>
        <time>2018-04-24T08:14:01Z</time>
      </trkpt>
      <trkpt lat="44.80434" lon="3.13471">
        <ele>1119</ele>
        <time>2018-04-24T08:15:01Z</time>
      </trkpt>
      <trkpt lat="44.80382" lon="3.13407">
        <ele>1115</ele>
        <time>2018-04-24T08:16:01Z</time>
      </trkpt>
      <trkpt lat="44.80367" lon="3.13378">
        <ele>1113</ele>
        <time>2018-04-24T08:17:01Z</time>
      </trkpt>
      <trkpt lat="44.80345" lon="3.13329">
        <ele>1110</ele>
        <time>2018-04-24T08:18:01Z</time>
      </trkpt>
      <trkpt lat="44.80336" lon="3.13301">
        <ele>1107</ele>
        <time>2018-04-24T08:19:01Z</time>
      </trkpt>
      <trkpt lat="44.80336" lon="3.1328">
        <ele>1105</ele>
        <time>2018-04-24T08:20:01Z</time>
      </trkpt>
      <trkpt lat="44.8033" lon="3.1327">
        <ele>1104</ele>
        <time>2018-04-24T08:21:01Z</time>
      </trkpt>
      <trkpt lat="44.8032" lon="3.13265">
        <ele>1103</ele>
        <time>2018-04-24T08:22:01Z</time>
      </trkpt>
      <trkpt lat="44.80304" lon="3.13264">
        <ele>1102</ele>
        <time>2018-04-24T08:23:01Z</time>
      </trkpt>
      <trkpt lat="44.80253" lon="3.13268">
        <ele>1101</ele>
        <time>2018-04-24T08:24:01Z</time>
      </trkpt>
      <trkpt lat="44.80242" lon="3.13263">
        <ele>1101</ele>
        <time>2018-04-24T08:25:01Z</time>
      </trkpt>
      <trkpt lat="44.80236" lon="3.13249">
        <ele>1100</ele>
        <time>2018-04-24T08:26:01Z</time>
      </trkpt>
      <trkpt lat="44.80232" lon="3.13223">
        <ele>1097</ele>
        <time>2018-04-24T08:27:01Z</time>
      </trkpt>
      <trkpt lat="44.80214" lon="3.13158">
        <ele>1091</ele>
        <time>2018-04-24T08:28:01Z</time>
      </trkpt>
      <trkpt lat="44.80191" lon="3.13119">
        <ele>1085</ele>
        <time>2018-04-24T08:29:01Z</time>
      </trkpt>
      <trkpt lat="44.80179" lon="3.13109">
        <ele>1084</ele>
        <time>2018-04-24T08:30:01Z</time>
      </trkpt>
      <trkpt lat="44.80168" lon="3.13105">
        <ele>1083</ele>
        <time>2018-04-24T08:31:01Z</time>
      </trkpt>
      <trkpt lat="44.80155" lon="3.13096">
        <ele>1081</ele>
        <time>2018-04-24T08:32:01Z</time>
      </trkpt>
      <trkpt lat="44.80143" lon="3.1308">
        <ele>1078</ele>
        <time>2018-04-24T08:33:01Z</time>
      </trkpt>
      <trkpt lat="44.80143" lon="3.1308">
        <ele>1078</ele>
        <time>2018-04-24T08:34:01Z</time>
      </trkpt>
      <trkpt lat="44.80141" lon="3.13077">
        <ele>1078</ele>
        <time>2018-04-24T08:35:01Z</time>
      </trkpt>
      <trkpt lat="44.80149" lon="3.13072">
        <ele>1077</ele>
        <time>2018-04-24T08:36:01Z</time>
      </trkpt>
      <trkpt lat="44.80169" lon="3.13067">
        <ele>1077</ele>
        <time>2018-04-24T08:37:01Z</time>
      </trkpt>
      <trkpt lat="44.80184" lon="3.13057">
        <ele>1075</ele>
        <time>2018-04-24T08:38:01Z</time>
      </trkpt>
      <trkpt lat="44.80206" lon="3.13063">
        <ele>1076</ele>
        <time>2018-04-24T08:39:01Z</time>
      </trkpt>
      <trkpt lat="44.80235" lon="3.13076">
        <ele>1078</ele>
        <time>2018-04-24T08:40:01Z</time>
      </trkpt>
      <trkpt lat="44.80252" lon="3.13076">
        <ele>1078</ele>
        <time>2018-04-24T08:41:01Z</time>
      </trkpt>
      <trkpt lat="44.80279" lon="3.13051">
        <ele>1077</ele>
        <time>2018-04-24T08:42:01Z</time>
      </trkpt>
      <trkpt lat="44.80306" lon="3.1302">
        <ele>1074</ele>
        <time>2018-04-24T08:43:01Z</time>
      </trkpt>
      <trkpt lat="44.80322" lon="3.13006">
        <ele>1072</ele>
        <time>2018-04-24T08:44:01Z</time>
      </trkpt>
      <trkpt lat="44.80338" lon="3.12995">
        <ele>1072</ele>
        <time>2018-04-24T08:45:01Z</time>
      </trkpt>
      <trkpt lat="44.80346" lon="3.12993">
        <ele>1072</ele>
        <time>2018-04-24T08:46:01Z</time>
      </trkpt>
      <trkpt lat="44.80368" lon="3.12979">
        <ele>1073</ele>
        <time>2018-04-24T08:47:01Z</time>
      </trkpt>
      <trkpt lat="44.8039" lon="3.12949">
        <ele>1074</ele>
        <time>2018-04-24T08:48:01Z</time>
      </trkpt>
      <trkpt lat="44.80412" lon="3.1293">
        <ele>1077</ele>
        <time>2018-04-24T08:49:01Z</time>
      </trkpt>
      <trkpt lat="44.80424" lon="3.12925">
        <ele>1078</ele>
        <time>2018-04-24T08:50:01Z</time>
      </trkpt>
      <trkpt lat="44.8044" lon="3.12925">
        <ele>1079</ele>
        <time>2018-04-24T08:51:01Z</time>
      </trkpt>
      <trkpt lat="44.8044" lon="3.12925">
        <ele>1079</ele>
        <time>2018-04-24T08:52:01Z</time>
      </trkpt>
      <trkpt lat="44.8047" lon="3.12926">
        <ele>1081</ele>
        <time>2018-04-24T08:53:01Z</time>
      </trkpt>
      <trkpt lat="44.80483" lon="3.1293">
        <ele>1082</ele>
        <time>2018-04-24T08:54:01Z</time>
      </trkpt>
      <trkpt lat="44.805" lon="3.12941">
        <ele>1082</ele>
        <time>2018-04-24T08:55:01Z</time>
      </trkpt>
      <trkpt lat="44.80505" lon="3.12949">
        <ele>1081</ele>
        <time>2018-04-24T08:56:01Z</time>
      </trkpt>
      <trkpt lat="44.8051" lon="3.12961">
        <ele>1080</ele>
        <time>2018-04-24T08:57:01Z</time>
      </trkpt>
      <trkpt lat="44.8052" lon="3.12969">
        <ele>1079</ele>
        <time>2018-04-24T08:58:01Z</time>
      </trkpt>
      <trkpt lat="44.80556" lon="3.1299">
        <ele>1073</ele>
        <time>2018-04-24T08:59:01Z</time>
      </trkpt>
      <trkpt lat="44.80589" lon="3.13014">
        <ele>1068</ele>
        <time>2018-04-24T09:00:01Z</time>
      </trkpt>
      <trkpt lat="44.80597" lon="3.13022">
        <ele>1068</ele>
        <time>2018-04-24T09:01:01Z</time>
      </trkpt>
      <trkpt lat="44.80603" lon="3.13036">
        <ele>1067</ele>
        <time>2018-04-24T09:02:01Z</time>
      </trkpt>
      <trkpt lat="44.80604" lon="3.1309">
        <ele>1068</ele>
        <time>2018-04-24T09:03:01Z</time>
      </trkpt>
      <trkpt lat="44.80608" lon="3.13105">
        <ele>1070</ele>
        <time>2018-04-24T09:04:01Z</time>
      </trkpt>
      <trkpt lat="44.80615" lon="3.13115">
        <ele>1071</ele>
        <time>2018-04-24T09:05:01Z</time>
      </trkpt>
      <trkpt lat="44.8063" lon="3.13126">
        <ele>1072</ele>
        <time>2018-04-24T09:06:01Z</time>
      </trkpt>
      <trkpt lat="44.80641" lon="3.13132">
        <ele>1072</ele>
        <time>2018-04-24T09:07:01Z</time>
      </trkpt>
      <trkpt lat="44.80651" lon="3.13133">
        <ele>1071</ele>
        <time>2018-04-24T09:08:01Z</time>
      </trkpt>
      <trkpt lat="44.80672" lon="3.13127">
        <ele>1069</ele>
        <time>2018-04-24T09:09:01Z</time>
      </trkpt>
      <trkpt lat="44.80687" lon="3.13119">
        <ele>1065</ele>
        <time>2018-04-24T09:10:01Z</time>
      </trkpt>
      <trkpt lat="44.80723" lon="3.13109">
        <ele>1058</ele>
        <time>2018-04-24T09:11:01Z</time>
      </trkpt>
      <trkpt lat="44.80737" lon="3.13107">
        <ele>1056</ele>
        <time>2018-04-24T09:12:01Z</time>
      </trkpt>
      <trkpt lat="44.80778" lon="3.13117">
        <ele>1053</ele>
        <time>2018-04-24T09:13:01Z</time>
      </trkpt>
      <trkpt lat="44.8079" lon="3.13116">
        <ele>1052</ele>
        <time>2018-04-24T09:14:01Z</time>
      </trkpt>
      <trkpt lat="44.80831" lon="3.13104">
        <ele>1048</ele>
        <time>2018-04-24T09:15:01Z</time>
      </trkpt>
      <trkpt lat="44.80838" lon="3.13098">
        <ele>1047</ele>
        <time>2018-04-24T09:16:01Z</time>
      </trkpt>
      <trkpt lat="44.80846" lon="3.13085">
        <ele>1047</ele>
        <time>2018-04-24T09:17:01Z</time>
      </trkpt>
      <trkpt lat="44.80851" lon="3.13068">
        <ele>1046</ele>
        <time>2018-04-24T09:18:01Z</time>
      </trkpt>
      <trkpt lat="44.809" lon="3.12987">
        <ele>1047</ele>
        <time>2018-04-24T09:19:01Z</time>
      </trkpt>
      <trkpt lat="44.809" lon="3.12987">
        <ele>1047</ele>
        <time>2018-04-24T09:20:01Z</time>
      </trkpt>
      <trkpt lat="44.80953" lon="3.12884">
        <ele>1042</ele>
        <time>2018-04-24T09:21:01Z</time>
      </trkpt>
      <trkpt lat="44.80973" lon="3.12855">
        <ele>1040</ele>
        <time>2018-04-24T09:22:01Z</time>
      </trkpt>
      <trkpt lat="44.81027" lon="3.12791">
        <ele>1035</ele>
        <time>2018-04-24T09:23:01Z</time>
      </trkpt>
      <trkpt lat="44.81037" lon="3.12775">
        <ele>1034</ele>
        <time>2018-04-24T09:24:01Z</time>
      </trkpt>
      <trkpt lat="44.81045" lon="3.1276">
        <ele>1033</ele>
        <time>2018-04-24T09:25:01Z</time>
      </trkpt>
      <trkpt lat="44.81052" lon="3.12735">
        <ele>1031</ele>
        <time>2018-04-24T09:26:01Z</time>
      </trkpt>
      <trkpt lat="44.81058" lon="3.12691">
        <ele>1026</ele>
        <time>2018-04-24T09:27:01Z</time>
      </trkpt>
      <trkpt lat="44.81064" lon="3.12674">
        <ele>1025</ele>
        <time>2018-04-24T09:28:01Z</time>
      </trkpt>
      <trkpt lat="44.81083" lon="3.12641">
        <ele>1021</ele>
        <time>2018-04-24T09:29:01Z</time>
      </trkpt>
      <trkpt lat="44.81091" lon="3.12631">
        <ele>1019</ele>
        <time>2018-04-24T09:30:01Z</time>
      </trkpt>
      <trkpt lat="44.81139" lon="3.12603">
        <ele>1015</ele>
        <time>2018-04-24T09:31:01Z</time>
      </trkpt>
      <trkpt lat="44.81165" lon="3.1257">
        <ele>1008</ele>
        <time>2018-04-24T09:32:01Z</time>
      </trkpt>
      <trkpt lat="44.81212" lon="3.12536">
        <ele>1003</ele>
        <time>2018-04-24T09:33:01Z</time>
      </trkpt>
      <trkpt lat="44.81229" lon="3.12527">
        <ele>1002</ele>
        <time>2018-04-24T09:34:01Z</time>
      </trkpt>
      <trkpt lat="44.81283" lon="3.12479">
        <ele>996</ele>
        <time>2018-04-24T09:35:01Z</time>
      </trkpt>
      <trkpt lat="44.81299" lon="3.12469">
        <ele>995</ele>
        <time>2018-04-24T09:36:01Z</time>
      </trkpt>
      <trkpt lat="44.81306" lon="3.12461">
        <ele>994</ele>
        <time>2018-04-24T09:37:01Z</time>
      </trkpt>
      <trkpt lat="44.81309" lon="3.12451">
        <ele>992</ele>
        <time>2018-04-24T09:38:01Z</time>
      </trkpt>
      <trkpt lat="44.81314" lon="3.12442">
        <ele>990</ele>
        <time>2018-04-24T09:39:01Z</time>
      </trkpt>
      <trkpt lat="44.81321" lon="3.12433">
        <ele>988</ele>
        <time>2018-04-24T09:40:01Z</time>
      </trkpt>
      <trkpt lat="44.81336" lon="3.12421">
        <ele>987</ele>
        <time>2018-04-24T09:41:01Z</time>
      </trkpt>
      <trkpt lat="44.81357" lon="3.12391">
        <ele>982</ele>
        <time>2018-04-24T09:42:01Z</time>
      </trkpt>
      <trkpt lat="44.81375" lon="3.12373">
        <ele>980</ele>
        <time>2018-04-24T09:43:01Z</time>
      </trkpt>
      <trkpt lat="44.81375" lon="3.12373">
        <ele>980</ele>
        <time>2018-04-24T09:44:01Z</time>
      </trkpt>
      <trkpt lat="44.81389" lon="3.12364">
        <ele>978</ele>
        <time>2018-04-24T09:45:01Z</time>
      </trkpt>
      <trkpt lat="44.81418" lon="3.12357">
        <ele>977</ele>
        <time>2018-04-24T09:46:01Z</time>
      </trkpt>
      <trkpt lat="44.81434" lon="3.12357">
        <ele>977</ele>
        <time>2018-04-24T09:47:01Z</time>
      </trkpt>
      <trkpt lat="44.81466" lon="3.12366">
        <ele>980</ele>
        <time>2018-04-24T09:48:01Z</time>
      </trkpt>
      <trkpt lat="44.81487" lon="3.12365">
        <ele>979</ele>
        <time>2018-04-24T09:49:01Z</time>
      </trkpt>
      <trkpt lat="44.81548" lon="3.12355">
        <ele>975</ele>
        <time>2018-04-24T09:50:01Z</time>
      </trkpt>
      <trkpt lat="44.81579" lon="3.12354">
        <ele>974</ele>
        <time>2018-04-24T09:51:01Z</time>
      </trkpt>
      <trkpt lat="44.81596" lon="3.12351">
        <ele>973</ele>
        <time>2018-04-24T09:52:01Z</time>
      </trkpt>
      <trkpt lat="44.81626" lon="3.12333">
        <ele>969</ele>
        <time>2018-04-24T09:53:01Z</time>
      </trkpt>
      <trkpt lat="44.81656" lon="3.1234">
        <ele>970</ele>
        <time>2018-04-24T09:54:01Z</time>
      </trkpt>
      <trkpt lat="44.81662" lon="3.12337">
        <ele>969</ele>
        <time>2018-04-24T09:55:01Z</time>
      </trkpt>
      <trkpt lat="44.8167" lon="3.12321">
        <ele>968</ele>
        <time>2018-04-24T09:56:01Z</time>
      </trkpt>
      <trkpt lat="44.81679" lon="3.12263">
        <ele>965</ele>
        <time>2018-04-24T09:57:01Z</time>
      </trkpt>
      <trkpt lat="44.81683" lon="3.12258">
        <ele>964</ele>
        <time>2018-04-24T09:58:01Z</time>
      </trkpt>
      <trkpt lat="44.81673" lon="3.12201">
        <ele>963</ele>
        <time>2018-04-24T09:59:01Z</time>
      </trkpt>
      <trkpt lat="44.81674" lon="3.12167">
        <ele>962</ele>
        <time>2018-04-24T10:00:01Z</time>
      </trkpt>
      <trkpt lat="44.81677" lon="3.12111">
        <ele>963</ele>
        <time>2018-04-24T10:01:01Z</time>
      </trkpt>
      <trkpt lat="44.81682" lon="3.12093">
        <ele>963</ele>
        <time>2018-04-24T10:02:01Z</time>
      </trkpt>
      <trkpt lat="44.8169" lon="3.12084">
        <ele>963</ele>
        <time>2018-04-24T10:03:01Z</time>
      </trkpt>
    </trkseg>
  </trk>
</gpx>